createdAt,value
2023-03-13T00:00:25.107Z,16.45
2023-03-13T00:02:55.388Z,15.07
2023-03-13T00:05:25.704Z,14.75
2023-03-13T00:07:55.986Z,15.93
2023-03-13T00:10:27.381Z,11.63
2023-03-13T00:13:01.711Z,10.52
2023-03-13T00:15:32.098Z,9.63
2023-03-13T00:18:02.477Z,12.00
2023-03-13T00:20:33.145Z,13.35
2023-03-13T00:23:03.434Z,13.65
2023-03-13T00:25:33.776Z,11.13
2023-03-13T00:28:06.817Z,9.00
2023-03-13T00:30:37.117Z,9.88
2023-03-13T00:33:07.452Z,12.65
2023-03-13T00:35:37.732Z,8.10
2023-03-13T00:38:07.944Z,9.88
2023-03-13T00:40:38.452Z,13.95
2023-03-13T00:43:11.414Z,14.88
2023-03-13T00:45:43.319Z,16.83
2023-03-13T00:48:13.758Z,11.52
2023-03-13T00:50:44.050Z,12.32
2023-03-13T00:53:14.327Z,17.75
2023-03-13T00:55:55.212Z,18.38
2023-03-13T00:58:31.885Z,16.88
2023-03-13T01:01:10.323Z,15.10
2023-03-13T01:03:41.594Z,14.35
2023-03-13T01:06:14.588Z,13.05
2023-03-13T01:08:45.342Z,15.25
2023-03-13T01:11:17.939Z,12.95
2023-03-13T01:13:51.742Z,10.65
2023-03-13T01:16:24.028Z,11.68
2023-03-13T01:18:56.270Z,11.30
2023-03-13T01:21:28.085Z,12.40
2023-03-13T01:23:59.757Z,12.40
2023-03-13T01:26:30.808Z,13.65
2023-03-13T01:29:03.790Z,12.20
2023-03-13T01:31:36.585Z,12.02
2023-03-13T01:34:10.939Z,13.02
2023-03-13T01:36:41.389Z,12.15
2023-03-13T01:39:11.657Z,11.65
2023-03-13T01:41:42.580Z,14.77
2023-03-13T01:44:24.874Z,13.10
2023-03-13T01:46:56.426Z,14.75
2023-03-13T01:49:28.919Z,10.30
2023-03-13T01:52:22.170Z,10.35
2023-03-13T01:55:05.475Z,12.13
2023-03-13T01:57:39.327Z,9.40
2023-03-13T02:00:16.587Z,13.52
2023-03-13T02:02:50.091Z,6.20
2023-03-13T02:05:23.265Z,10.30
2023-03-13T02:07:59.980Z,13.25
2023-03-13T02:10:32.554Z,9.68
2023-03-13T02:13:05.635Z,15.32
2023-03-13T02:15:38.546Z,18.58
2023-03-13T02:18:08.927Z,11.43
2023-03-13T02:20:41.252Z,10.45
2023-03-13T02:23:21.840Z,16.30
2023-03-13T02:25:56.291Z,12.75
2023-03-13T02:28:39.237Z,17.30
2023-03-13T02:31:14.168Z,9.48
2023-03-13T02:33:46.047Z,21.80
2023-03-13T02:36:20.926Z,13.63
2023-03-13T02:38:57.959Z,15.90
2023-03-13T02:41:32.665Z,14.02
2023-03-13T02:44:03.898Z,18.65
2023-03-13T02:46:34.303Z,19.52
2023-03-13T02:49:23.013Z,15.10
2023-03-13T02:51:54.921Z,13.00
2023-03-13T02:54:27.742Z,13.65
2023-03-13T02:57:03.797Z,16.45
2023-03-13T02:59:35.326Z,16.73
2023-03-13T03:02:06.244Z,14.85
2023-03-13T03:04:37.166Z,15.50
2023-03-13T03:07:08.158Z,15.23
2023-03-13T03:09:39.270Z,19.90
2023-03-13T03:12:17.555Z,9.27
2023-03-13T03:14:48.855Z,11.15
2023-03-13T03:17:20.863Z,14.73
2023-03-13T03:19:51.600Z,12.68
2023-03-13T03:22:22.378Z,14.23
2023-03-13T03:24:53.230Z,14.93
2023-03-13T03:27:26.679Z,10.80
2023-03-13T03:29:58.684Z,9.93
2023-03-13T03:32:29.587Z,12.00
2023-03-13T03:35:00.512Z,13.73
2023-03-13T03:37:31.347Z,8.63
2023-03-13T03:40:05.864Z,10.23
2023-03-13T03:42:39.481Z,13.98
2023-03-13T03:45:11.530Z,11.50
2023-03-13T03:47:42.353Z,13.68
2023-03-13T03:50:14.740Z,9.40
2023-03-13T03:52:55.433Z,13.38
2023-03-13T03:55:28.816Z,12.73
2023-03-13T03:58:03.219Z,11.07
2023-03-13T04:00:53.628Z,9.75
2023-03-13T04:03:24.073Z,7.10
2023-03-13T04:05:54.695Z,6.32
2023-03-13T04:08:27.242Z,7.80
2023-03-13T04:10:57.739Z,7.25
2023-03-13T04:13:32.266Z,4.80
2023-03-13T04:16:03.055Z,9.40
2023-03-13T04:18:33.540Z,7.45
2023-03-13T04:21:04.668Z,5.70
2023-03-13T04:23:41.267Z,9.25
2023-03-13T04:26:11.598Z,8.23
2023-03-13T04:28:46.037Z,3.83
2023-03-13T04:31:21.521Z,8.75
2023-03-13T04:34:10.640Z,7.18
2023-03-13T04:36:59.292Z,4.10
2023-03-13T04:40:05.398Z,4.38
2023-03-13T04:42:58.342Z,6.18
2023-03-13T04:45:55.282Z,4.50
2023-03-13T04:48:41.639Z,3.85
2023-03-13T04:51:27.279Z,3.95
2023-03-13T04:54:17.831Z,7.35
2023-03-13T04:57:06.343Z,5.93
2023-03-13T04:59:44.727Z,4.95
2023-03-13T05:02:40.733Z,3.80
2023-03-13T05:05:11.691Z,4.72
2023-03-13T05:07:57.090Z,5.28
2023-03-13T05:10:29.900Z,3.97
2023-03-13T05:13:27.443Z,5.85
2023-03-13T05:16:06.936Z,8.48
2023-03-13T05:18:49.975Z,10.30
2023-03-13T05:21:38.525Z,12.10
2023-03-13T05:24:31.115Z,7.85
2023-03-13T05:27:30.844Z,9.93
2023-03-13T05:30:15.284Z,10.15
2023-03-13T05:33:04.552Z,7.18
2023-03-13T05:36:13.094Z,9.85
2023-03-13T05:39:01.923Z,11.90
2023-03-13T05:41:55.067Z,10.90
2023-03-13T05:44:44.842Z,11.35
2023-03-13T05:47:18.822Z,17.17
2023-03-13T05:50:18.566Z,20.77
2023-03-13T05:53:23.449Z,14.38
2023-03-13T05:56:10.670Z,10.93
2023-03-13T05:58:43.987Z,12.60
2023-03-13T06:01:32.836Z,15.45
2023-03-13T06:04:09.029Z,11.90
2023-03-13T06:06:41.194Z,19.70
2023-03-13T06:09:14.669Z,10.95
2023-03-13T06:11:44.951Z,15.52
2023-03-13T06:14:15.323Z,14.68
2023-03-13T06:17:06.905Z,18.33
2023-03-13T06:19:37.209Z,16.27
2023-03-13T06:22:07.707Z,11.90
2023-03-13T06:24:40.906Z,17.60
2023-03-13T06:27:11.389Z,12.27
2023-03-13T06:29:41.851Z,14.70
2023-03-13T06:32:12.341Z,17.63
2023-03-13T06:34:42.760Z,21.48
2023-03-13T06:37:13.403Z,19.48
2023-03-13T06:39:46.442Z,16.25
2023-03-13T06:42:16.855Z,15.30
2023-03-13T06:44:47.269Z,20.45
2023-03-13T06:47:17.692Z,23.48
2023-03-13T06:49:48.098Z,19.02
2023-03-13T06:52:19.413Z,18.02
2023-03-13T06:54:53.232Z,17.48
2023-03-13T06:57:23.620Z,22.75
2023-03-13T06:59:53.954Z,19.40
2023-03-13T07:02:24.765Z,18.60
2023-03-13T07:04:55.555Z,23.48
2023-03-13T07:07:31.764Z,23.45
2023-03-13T07:10:05.402Z,20.13
2023-03-13T07:12:37.021Z,17.13
2023-03-13T07:15:08.204Z,22.45
2023-03-13T07:17:38.778Z,24.67
2023-03-13T07:20:11.173Z,23.40
2023-03-13T07:22:41.573Z,24.92
2023-03-13T07:25:14.740Z,22.50
2023-03-13T07:27:44.953Z,18.23
2023-03-13T07:30:16.410Z,17.75
2023-03-13T07:32:46.792Z,20.70
2023-03-13T07:35:17.610Z,18.15
2023-03-13T07:37:47.942Z,22.27
2023-03-13T07:40:21.225Z,17.23
2023-03-13T07:42:51.561Z,19.13
2023-03-13T07:45:21.892Z,24.63
2023-03-13T07:47:52.219Z,16.80
2023-03-13T07:50:22.624Z,25.45
2023-03-13T07:52:53.027Z,16.83
2023-03-13T07:55:26.070Z,19.48
2023-03-13T07:57:56.470Z,25.92
2023-03-13T08:00:27.398Z,14.50
2023-03-13T08:02:57.758Z,22.83
2023-03-13T08:05:28.248Z,21.52
2023-03-13T08:07:58.554Z,21.27
2023-03-13T08:10:31.478Z,25.70
2023-03-13T08:13:08.019Z,19.50
2023-03-13T08:15:38.441Z,22.92
2023-03-13T08:18:08.934Z,22.85
2023-03-13T08:20:39.493Z,19.70
2023-03-13T08:23:11.512Z,17.80
2023-03-13T08:25:44.577Z,20.30
2023-03-13T08:28:15.071Z,22.10
2023-03-13T08:30:46.215Z,25.67
2023-03-13T08:33:17.299Z,19.73
2023-03-13T08:35:47.740Z,23.58
2023-03-13T08:38:18.669Z,21.10
2023-03-13T08:40:52.774Z,23.70
2023-03-13T08:43:23.124Z,24.60
2023-03-13T08:45:58.092Z,28.08
2023-03-13T08:48:29.667Z,23.98
2023-03-13T08:51:06.002Z,25.52
2023-03-13T08:53:38.443Z,23.33
2023-03-13T08:56:14.869Z,27.52
2023-03-13T08:58:46.435Z,18.35
2023-03-13T09:01:18.987Z,18.70
2023-03-13T09:03:49.746Z,21.55
2023-03-13T09:06:20.749Z,22.05
2023-03-13T09:08:51.547Z,27.35
2023-03-13T09:11:24.984Z,22.45
2023-03-13T09:13:55.629Z,25.63
2023-03-13T09:16:27.822Z,27.30
2023-03-13T09:18:59.164Z,19.55
2023-03-13T09:21:31.102Z,19.88
2023-03-13T09:24:01.929Z,22.00
2023-03-13T09:26:34.817Z,31.23
2023-03-13T09:29:05.379Z,19.73
2023-03-13T09:31:38.433Z,22.75
2023-03-13T09:34:08.825Z,21.83
2023-03-13T09:36:39.130Z,25.10
2023-03-13T09:39:09.595Z,22.23
2023-03-13T09:41:46.660Z,28.63
2023-03-13T09:44:21.573Z,24.13
2023-03-13T09:47:03.075Z,17.08
2023-03-13T09:49:37.274Z,25.38
2023-03-13T09:52:19.083Z,21.15
2023-03-13T09:54:53.659Z,17.65
2023-03-13T09:57:34.428Z,21.85
2023-03-13T10:00:13.007Z,20.20
2023-03-13T10:02:46.917Z,24.58
2023-03-13T10:05:20.646Z,26.75
2023-03-13T10:07:51.790Z,20.23
2023-03-13T10:10:27.381Z,24.60
2023-03-13T10:13:06.697Z,20.90
2023-03-13T10:15:42.285Z,25.20
2023-03-13T10:18:22.671Z,21.80
2023-03-13T10:20:54.520Z,28.13
2023-03-13T10:23:32.445Z,16.60
2023-03-13T10:26:02.741Z,26.23
2023-03-13T10:28:35.638Z,25.17
2023-03-13T10:31:11.233Z,15.85
2023-03-13T10:33:41.557Z,20.42
2023-03-13T10:36:13.465Z,27.85
2023-03-13T10:38:53.387Z,26.73
2023-03-13T10:41:31.205Z,25.48
2023-03-13T10:44:08.812Z,23.05
2023-03-13T10:46:44.404Z,19.45
2023-03-13T10:49:19.385Z,26.50
2023-03-13T10:51:51.526Z,22.15
2023-03-13T10:54:26.659Z,20.90
2023-03-13T10:57:31.863Z,20.08
2023-03-13T11:00:11.486Z,22.77
2023-03-13T11:02:42.887Z,18.30
2023-03-13T11:05:35.480Z,20.67
2023-03-13T11:08:16.608Z,18.00
2023-03-13T11:10:57.258Z,18.85
2023-03-13T11:13:38.649Z,22.17
2023-03-13T11:16:22.074Z,22.40
2023-03-13T11:19:13.705Z,20.50
2023-03-13T11:21:52.826Z,22.95
2023-03-13T11:24:30.437Z,22.60
2023-03-13T11:27:10.617Z,17.80
2023-03-13T11:29:49.375Z,23.45
2023-03-13T11:32:29.969Z,20.52
2023-03-13T11:35:05.481Z,18.65
2023-03-13T11:37:38.609Z,18.75
2023-03-13T11:40:21.526Z,17.90
2023-03-13T11:43:24.447Z,18.42
2023-03-13T11:46:22.191Z,17.52
2023-03-13T11:49:28.947Z,17.70
2023-03-13T11:52:15.397Z,24.10
2023-03-13T11:55:15.484Z,22.60
2023-03-13T11:57:54.203Z,24.27
2023-03-13T12:00:33.136Z,17.25
2023-03-13T12:03:14.631Z,19.10
2023-03-13T12:05:51.673Z,22.80
2023-03-13T12:08:29.950Z,23.90
2023-03-13T12:11:09.348Z,22.42
2023-03-13T12:13:46.345Z,22.08
2023-03-13T12:16:21.361Z,21.10
2023-03-13T12:18:53.613Z,19.00
2023-03-13T12:21:29.739Z,26.75
2023-03-13T12:24:12.563Z,17.80
2023-03-13T12:26:47.245Z,20.73
2023-03-13T12:29:24.812Z,16.38
2023-03-13T12:32:00.474Z,17.92
2023-03-13T12:34:36.318Z,17.38
2023-03-13T12:37:14.485Z,21.02
2023-03-13T12:39:53.978Z,27.20
2023-03-13T12:42:40.091Z,20.70
2023-03-13T12:45:14.515Z,18.92
2023-03-13T12:48:20.747Z,20.02
2023-03-13T12:51:09.532Z,29.52
2023-03-13T12:54:05.911Z,18.23
2023-03-13T12:56:55.953Z,20.27
2023-03-13T12:59:31.052Z,29.67
2023-03-13T13:02:03.779Z,19.73
2023-03-13T13:04:37.274Z,24.63
2023-03-13T13:07:10.093Z,20.23
2023-03-13T13:09:42.150Z,16.73
2023-03-13T13:12:26.456Z,16.92
2023-03-13T13:15:06.854Z,14.10
2023-03-13T13:17:52.731Z,24.20
2023-03-13T13:20:35.263Z,18.50
2023-03-13T13:23:42.145Z,15.85
2023-03-13T13:26:51.305Z,24.42
2023-03-13T13:29:58.315Z,15.52
2023-03-13T13:32:44.170Z,18.13
2023-03-13T13:35:27.482Z,13.57
2023-03-13T13:38:40.604Z,18.55
2023-03-13T13:41:28.628Z,16.98
2023-03-13T13:44:24.617Z,14.63
2023-03-13T13:46:57.116Z,16.55
2023-03-13T13:49:38.257Z,15.48
2023-03-13T13:52:42.353Z,16.38
2023-03-13T13:55:35.294Z,22.08
2023-03-13T13:58:07.706Z,18.02
2023-03-13T14:00:43.707Z,23.02
2023-03-13T14:03:23.677Z,17.37
2023-03-13T14:06:00.552Z,20.38
2023-03-13T14:11:26.819Z,20.67
2023-03-13T14:14:13.612Z,19.83
2023-03-13T14:16:47.743Z,15.93
2023-03-13T14:19:32.174Z,20.55
2023-03-13T14:22:09.162Z,16.80
2023-03-13T14:27:18.937Z,19.25
2023-03-13T14:30:03.362Z,18.23
2023-03-13T14:32:33.789Z,11.82
2023-03-13T14:35:05.134Z,16.77
2023-03-13T14:37:43.903Z,17.85
2023-03-13T14:40:24.663Z,19.83
2023-03-13T14:42:56.748Z,19.52
2023-03-13T14:45:33.790Z,31.95
2023-03-13T14:48:06.363Z,18.90
2023-03-13T14:50:38.342Z,26.17
2023-03-13T14:53:16.464Z,20.60
2023-03-13T14:55:46.815Z,24.38
2023-03-13T14:58:31.242Z,23.15
2023-03-13T15:01:01.781Z,28.60
2023-03-13T15:03:34.547Z,16.98
2023-03-13T15:06:19.639Z,22.13
2023-03-13T15:09:10.451Z,24.17
2023-03-13T15:11:44.373Z,23.38
2023-03-13T15:14:37.068Z,23.40
2023-03-13T15:17:13.096Z,21.73
2023-03-13T15:19:43.431Z,25.03
2023-03-13T15:22:16.865Z,19.88
2023-03-13T15:25:04.915Z,26.50
2023-03-13T15:27:36.582Z,22.50
2023-03-13T15:30:07.845Z,23.38
2023-03-13T15:32:42.682Z,21.65
2023-03-13T15:35:27.368Z,18.20
2023-03-13T15:37:58.050Z,21.05
2023-03-13T15:40:31.720Z,20.33
2023-03-13T15:43:02.135Z,28.08
2023-03-13T15:45:32.692Z,20.80
2023-03-13T15:48:03.280Z,23.75
2023-03-13T15:50:33.909Z,22.25
2023-03-13T15:53:04.147Z,24.77
2023-03-13T15:55:37.028Z,19.33
2023-03-13T15:58:07.291Z,30.30
2023-03-13T16:00:37.772Z,20.40
2023-03-13T16:03:08.157Z,28.50
2023-03-13T16:05:38.471Z,24.15
2023-03-13T16:08:09.202Z,22.48
2023-03-13T16:10:42.267Z,22.92
2023-03-13T16:13:12.652Z,22.17
2023-03-13T16:15:43.333Z,24.33
2023-03-13T16:18:19.020Z,26.92
2023-03-13T16:20:49.431Z,27.05
2023-03-13T16:23:19.880Z,22.23
2023-03-13T16:25:53.606Z,28.50
2023-03-13T16:28:24.007Z,19.95
2023-03-13T16:30:57.370Z,25.50
2023-03-13T16:33:27.836Z,19.60
2023-03-13T16:35:58.229Z,20.67
2023-03-13T16:38:28.590Z,23.75
2023-03-13T16:41:01.482Z,23.20
2023-03-13T16:43:31.815Z,22.55
2023-03-13T16:46:02.392Z,18.38
2023-03-13T16:48:32.875Z,20.45
2023-03-13T16:51:06.372Z,20.67
2023-03-13T16:53:37.626Z,21.63
2023-03-13T16:56:17.448Z,20.35
2023-03-13T16:58:48.006Z,23.27
2023-03-13T17:01:18.555Z,24.10
2023-03-13T17:03:49.173Z,22.20
2023-03-13T17:06:21.863Z,31.67
2023-03-13T17:08:56.470Z,21.65
2023-03-13T17:11:29.850Z,24.67
2023-03-13T17:14:03.843Z,23.48
2023-03-13T17:16:36.568Z,25.63
2023-03-13T17:19:07.607Z,29.30
2023-03-13T17:21:38.510Z,24.88
2023-03-13T17:24:09.954Z,20.23
2023-03-13T17:26:43.378Z,23.85
2023-03-13T17:29:23.863Z,23.33
2023-03-13T17:31:54.169Z,10.07
2023-03-13T17:34:27.167Z,16.13
2023-03-13T17:36:57.531Z,19.08
2023-03-13T17:39:28.203Z,21.42
2023-03-13T17:42:01.170Z,18.20
2023-03-13T17:44:31.942Z,24.65
2023-03-13T17:47:02.232Z,21.65
2023-03-13T17:49:32.785Z,15.07
2023-03-13T17:52:03.049Z,21.17
2023-03-13T17:54:33.390Z,20.10
2023-03-13T17:57:16.353Z,20.58
2023-03-13T17:59:47.489Z,25.75
2023-03-13T18:02:19.433Z,17.80
2023-03-13T18:04:49.866Z,18.48
2023-03-13T18:07:25.771Z,20.45
2023-03-13T18:09:56.171Z,19.42
2023-03-13T18:12:29.112Z,17.58
2023-03-13T18:14:59.528Z,23.58
2023-03-13T18:17:30.251Z,18.20
2023-03-13T18:20:00.653Z,22.63
2023-03-13T18:22:31.086Z,21.33
2023-03-13T18:25:01.628Z,23.20
2023-03-13T18:27:34.593Z,23.00
2023-03-13T18:30:05.136Z,24.70
2023-03-13T18:32:35.415Z,20.02
2023-03-13T18:35:05.778Z,20.98
2023-03-13T18:37:36.149Z,29.10
2023-03-13T18:40:09.621Z,19.23
2023-03-13T18:42:42.592Z,26.58
2023-03-13T18:45:16.885Z,30.27
2023-03-13T18:47:48.370Z,27.35
2023-03-13T18:50:24.766Z,32.17
2023-03-13T18:52:55.591Z,31.85
2023-03-13T18:55:26.784Z,27.63
2023-03-13T18:58:00.156Z,21.63
2023-03-13T19:00:32.686Z,25.33
2023-03-13T19:03:03.231Z,28.02
2023-03-13T19:05:33.551Z,21.85
2023-03-13T19:08:03.972Z,23.30
2023-03-13T19:10:38.665Z,23.35
2023-03-13T19:13:11.600Z,30.65
2023-03-13T19:15:42.139Z,23.35
2023-03-13T19:18:14.341Z,30.73
2023-03-13T19:20:45.030Z,26.08
2023-03-13T19:23:15.382Z,35.03
2023-03-13T19:25:45.790Z,29.30
2023-03-13T19:28:25.375Z,28.05
2023-03-13T19:30:55.820Z,29.23
2023-03-13T19:33:26.308Z,24.42
2023-03-13T19:35:56.671Z,25.77
2023-03-13T19:38:27.021Z,23.38
2023-03-13T19:40:57.330Z,22.38
2023-03-13T19:43:30.281Z,19.58
2023-03-13T19:46:00.696Z,22.20
2023-03-13T19:48:31.057Z,27.05
2023-03-13T19:51:01.336Z,27.70
2023-03-13T19:53:31.646Z,19.17
2023-03-13T19:56:02.037Z,25.98
2023-03-13T19:58:36.954Z,12.93
2023-03-13T20:01:16.970Z,24.42
2023-03-13T20:03:49.150Z,15.70
2023-03-13T20:06:21.672Z,17.02
2023-03-13T20:08:52.698Z,19.88
2023-03-13T20:11:23.093Z,15.48
2023-03-13T20:13:56.566Z,21.10
2023-03-13T20:16:30.173Z,15.43
2023-03-13T20:19:01.483Z,16.48
2023-03-13T20:21:33.412Z,20.38
2023-03-13T20:24:04.319Z,20.42
2023-03-13T20:26:34.995Z,19.70
2023-03-13T20:29:07.890Z,16.65
2023-03-13T20:31:38.302Z,15.75
2023-03-13T20:34:08.684Z,18.88
2023-03-13T20:36:39.021Z,23.33
2023-03-13T20:39:09.305Z,20.15
2023-03-13T20:41:40.451Z,20.58
2023-03-13T20:44:14.122Z,22.80
2023-03-13T20:46:44.457Z,16.95
2023-03-13T20:49:14.982Z,21.40
2023-03-13T20:51:45.347Z,24.38
2023-03-13T20:54:17.253Z,15.50
2023-03-13T20:56:49.216Z,19.35
2023-03-13T20:59:22.339Z,17.88
2023-03-13T21:01:52.634Z,24.40
2023-03-13T21:04:23.881Z,22.20
2023-03-13T21:07:04.599Z,21.23
2023-03-13T21:09:36.080Z,21.85
2023-03-13T21:12:08.675Z,17.45
2023-03-13T21:14:42.647Z,18.45
2023-03-13T21:17:13.609Z,19.52
2023-03-13T21:19:46.154Z,18.70
2023-03-13T21:22:16.507Z,22.45
2023-03-13T21:24:46.927Z,18.27
2023-03-13T21:27:17.537Z,16.75
2023-03-13T21:29:50.973Z,20.17
2023-03-13T21:32:21.591Z,23.00
2023-03-13T21:34:52.244Z,25.98
2023-03-13T21:37:22.611Z,30.30
2023-03-13T21:39:54.453Z,20.85
2023-03-13T21:42:24.816Z,26.85
2023-03-13T21:44:58.064Z,29.75
2023-03-13T21:47:28.510Z,27.85
2023-03-13T21:50:00.749Z,20.60
2023-03-13T21:52:32.591Z,24.65
2023-03-13T21:55:04.582Z,22.20
2023-03-13T21:57:37.775Z,23.63
2023-03-13T22:00:16.032Z,21.80
2023-03-13T22:02:46.583Z,22.10
2023-03-13T22:05:17.576Z,18.58
2023-03-13T22:07:48.930Z,26.85
2023-03-13T22:10:20.056Z,16.13
2023-03-13T22:12:50.839Z,15.40
2023-03-13T22:15:24.712Z,15.18
2023-03-13T22:17:55.486Z,14.93
2023-03-13T22:20:25.743Z,11.98
2023-03-13T22:22:56.119Z,11.38
2023-03-13T22:25:26.377Z,10.75
2023-03-13T22:27:56.773Z,9.95
2023-03-13T22:30:29.828Z,11.57
2023-03-13T22:33:00.276Z,12.93
2023-03-13T22:35:30.734Z,10.27
2023-03-13T22:38:01.068Z,15.43
2023-03-13T22:40:31.515Z,9.15
2023-03-13T22:43:01.986Z,12.43
2023-03-13T22:45:36.524Z,10.25
2023-03-13T22:48:08.137Z,10.63
2023-03-13T22:50:39.124Z,14.35
2023-03-13T22:53:09.400Z,9.88
2023-03-13T22:55:39.648Z,10.05
2023-03-13T22:58:09.996Z,8.85
2023-03-13T23:00:42.885Z,9.35
2023-03-13T23:03:13.263Z,11.90
2023-03-13T23:05:47.493Z,11.85
2023-03-13T23:08:18.298Z,8.60
2023-03-13T23:10:50.407Z,10.20
2023-03-13T23:13:20.769Z,9.32
2023-03-13T23:15:55.974Z,11.20
2023-03-13T23:18:27.241Z,8.85
2023-03-13T23:20:57.618Z,5.80
2023-03-13T23:23:27.984Z,8.93
2023-03-13T23:25:58.318Z,10.77
2023-03-13T23:28:28.832Z,7.43
2023-03-13T23:31:01.688Z,7.40
2023-03-13T23:33:32.643Z,11.73
2023-03-13T23:36:08.466Z,7.60
2023-03-13T23:38:38.959Z,6.55
2023-03-13T23:41:10.078Z,7.70
2023-03-13T23:43:40.616Z,7.50
2023-03-13T23:46:20.915Z,8.35
2023-03-13T23:48:51.442Z,7.97
2023-03-13T23:51:21.896Z,8.70
2023-03-13T23:53:52.380Z,6.93
2023-03-13T23:56:24.710Z,7.40
2023-03-13T23:58:56.541Z,4.88
